Time;durP1;ratioP1;P1;durP2;ratioP2;P2;SDS_P1;SDS_P2;PMS_P1;PMS_P2;Temp;Humidity;BMP_temperature;BMP_pressure;BME280_temperature;BME280_humidity;BME280_pressure;Samples;Min_cycle;Max_cycle;Signal;HPM_P1;HPM_P2
2020/12/06 00:01:05;;;;;;;54.15;24.20;;;;;;;0.85;100.00;97298.56;5100612;28;20139;-75
2020/12/06 00:03:32;;;;;;;58.08;25.02;;;;;;;0.84;100.00;97296.16;5102046;28;20032;-75
2020/12/06 00:05:58;;;;;;;64.18;27.80;;;;;;;0.83;100.00;97295.34;5099620;28;20020;-75
2020/12/06 00:08:23;;;;;;;58.75;28.02;;;;;;;0.89;100.00;97315.03;5099936;28;20127;-75
2020/12/06 00:10:49;;;;;;;52.05;28.10;;;;;;;0.94;100.00;97317.81;5101017;28;20103;-78
2020/12/06 00:13:14;;;;;;;61.42;28.52;;;;;;;0.97;100.00;97311.94;5100957;28;20024;-76
2020/12/06 00:15:39;;;;;;;;;;;;;;;0.93;100.00;97311.63;5100957;28;20091;-76
2020/12/06 00:18:05;;;;;;;58.47;27.52;;;;;;;0.86;100.00;97302.91;5105113;28;20431;-79
2020/12/06 00:20:30;;;;;;;56.90;29.63;;;;;;;0.78;100.00;97286.38;5102181;28;20031;-79
2020/12/06 00:22:56;;;;;;;;;;;;;;;0.81;100.00;97281.31;5105864;28;20516;-84
2020/12/06 00:25:21;;;;;;;63.33;25.92;;;;;;;0.95;100.00;97287.94;5114534;28;19951;-78
2020/12/06 00:27:47;;;;;;;69.70;30.27;;;;;;;0.92;100.00;97282.25;5114973;28;20060;-75
2020/12/06 00:30:12;;;;;;;63.42;30.85;;;;;;;1.09;100.00;97291.09;5113466;28;20039;-76
2020/12/06 00:32:38;;;;;;;78.50;29.75;;;;;;;1.02;100.00;97285.88;5111855;28;20035;-74
2020/12/06 00:35:08;;;;;;;62.90;28.08;;;;;;;0.88;100.00;97287.31;5111287;28;20103;-75
2020/12/06 00:37:34;;;;;;;61.20;28.40;;;;;;;0.91;100.00;97302.97;5111410;28;20038;-76
2020/12/06 00:39:59;;;;;;;68.65;30.08;;;;;;;0.87;100.00;97298.34;5111854;28;20038;-74
2020/12/06 00:42:25;;;;;;;74.93;30.70;;;;;;;0.89;100.00;97282.75;5111425;28;20855;-75
2020/12/06 00:44:50;;;;;;;84.22;32.25;;;;;;;0.93;100.00;97298.16;5110165;28;20096;-75
2020/12/06 00:47:15;;;;;;;107.65;37.58;;;;;;;0.86;100.00;97281.38;5112205;28;20035;-76
2020/12/06 00:49:41;;;;;;;86.65;35.67;;;;;;;0.94;100.00;97307.84;5114476;28;20058;-75
2020/12/06 00:52:06;;;;;;;;;;;;;;;0.85;100.00;97298.56;5116853;28;20039;-75
2020/12/06 00:54:31;;;;;;;77.40;33.80;;;;;;;0.91;100.00;97291.38;5097628;28;19908;-75
2020/12/06 00:56:57;;;;;;;;;;;;;;;0.87;100.00;97301.84;5094879;28;20042;-76
2020/12/06 00:59:23;;;;;;;71.55;33.35;;;;;;;0.99;100.00;97299.84;5094279;28;19923;-75
2020/12/06 01:01:49;;;;;;;76.00;35.85;;;;;;;0.85;100.00;97278.91;5092948;28;20051;-75
2020/12/06 01:04:14;;;;;;;97.53;34.65;;;;;;;0.66;100.00;97266.84;5091801;28;20032;-75
2020/12/06 01:06:40;;;;;;;86.30;32.72;;;;;;;0.64;100.00;97263.59;5097912;28;20032;-75
2020/12/06 01:09:05;;;;;;;86.65;33.42;;;;;;;0.58;100.00;97268.09;5105372;28;20023;-74
2020/12/06 01:11:30;;;;;;;86.53;35.88;;;;;;;0.57;100.00;97296.03;5114999;28;20020;-75
2020/12/06 01:13:56;;;;;;;92.50;36.25;;;;;;;0.54;100.00;97326.13;5114807;28;20053;-75
2020/12/06 01:16:22;;;;;;;;;;;;;;;0.61;100.00;97321.41;5113914;28;20016;-74
2020/12/06 01:18:47;;;;;;;66.90;28.17;;;;;;;0.59;100.00;97310.09;5113205;28;19915;-74
2020/12/06 01:21:13;;;;;;;111.38;36.50;;;;;;;0.58;100.00;97307.63;5114430;28;20019;-74
2020/12/06 01:23:38;;;;;;;;;;;;;;;0.70;100.00;97311.00;5113663;28;20491;-73
2020/12/06 01:26:04;;;;;;;79.00;31.02;;;;;;;0.63;100.00;97305.81;5100756;28;19923;-74
2020/12/06 01:28:29;;;;;;;81.90;36.50;;;;;;;0.57;100.00;97279.91;5100845;28;20052;-75
2020/12/06 01:30:55;;;;;;;100.80;32.80;;;;;;;0.49;100.00;97269.59;5104008;28;20027;-74
2020/12/06 01:33:20;;;;;;;68.65;31.27;;;;;;;0.56;100.00;97305.19;5103453;28;20121;-74
2020/12/06 01:35:45;;;;;;;;;;;;;;;0.66;100.00;97307.22;5103141;28;20031;-74
2020/12/06 01:38:11;;;;;;;72.90;29.70;;;;;;;0.75;100.00;97287.66;5104240;28;19912;-74
2020/12/06 01:40:42;;;;;;;;;;;;;;;0.72;100.00;97284.69;5102802;28;20068;-75
2020/12/06 01:43:08;;;;;;;74.40;28.75;;;;;;;0.60;100.00;97275.91;5101629;28;19942;-75
2020/12/06 01:45:35;;;;;;;86.35;33.55;;;;;;;0.67;100.00;97295.38;5101175;28;20028;-74
2020/12/06 01:48:01;;;;;;;78.03;35.28;;;;;;;0.81;100.00;97291.25;5093806;28;20143;-74
2020/12/06 01:50:27;;;;;;;80.97;33.20;;;;;;;0.74;100.00;97275.31;5093366;28;20024;-75
2020/12/06 01:52:52;;;;;;;88.50;33.92;;;;;;;0.80;100.00;97285.06;5091903;28;20499;-74
2020/12/06 01:55:18;;;;;;;80.97;34.28;;;;;;;0.85;100.00;97293.19;5091876;28;20024;-76
2020/12/06 01:57:43;;;;;;;;;;;;;;;0.79;100.00;97294.19;5093505;28;20103;-75
2020/12/06 02:00:08;;;;;;;79.00;29.85;;;;;;;0.81;100.00;97294.78;5092194;28;20400;-75
2020/12/06 02:02:35;;;;;;;;;;;;;;;0.75;100.00;97282.28;5093257;28;20177;-74
2020/12/06 02:05:02;;;;;;;49.10;23.10;;;;;;;0.73;100.00;97273.66;5092754;28;19966;-75
2020/12/06 02:07:30;;;;;;;42.17;21.25;;;;;;;0.79;100.00;97272.66;5091469;28;20070;-74
2020/12/06 02:09:56;;;;;;;59.30;24.42;;;;;;;0.76;100.00;97262.41;5091473;28;20016;-75
2020/12/06 02:12:21;;;;;;;53.58;24.08;;;;;;;0.83;100.00;97256.84;5091244;28;20077;-74
2020/12/06 02:14:47;;;;;;;65.28;25.27;;;;;;;0.85;100.00;97255.50;5091488;28;20020;-75
2020/12/06 02:17:12;;;;;;;54.80;24.45;;;;;;;0.93;100.00;97241.63;5091953;28;20491;-74
2020/12/06 02:19:38;;;;;;;60.25;24.58;;;;;;;0.84;100.00;97237.75;5093042;28;20034;-75
2020/12/06 02:22:04;;;;;;;51.33;22.98;;;;;;;0.78;100.00;97227.19;5092666;28;20027;-75
2020/12/06 02:24:29;;;;;;;69.50;26.15;;;;;;;0.74;100.00;97208.03;5092573;28;20024;-74
2020/12/06 02:26:54;;;;;;;61.08;26.40;;;;;;;0.71;100.00;97211.22;5092210;28;20036;-75
2020/12/06 02:29:20;;;;;;;65.15;29.73;;;;;;;0.71;100.00;97216.59;5092493;28;20081;-75
2020/12/06 02:31:46;;;;;;;63.33;26.63;;;;;;;0.76;100.00;97222.03;5092553;28;20031;-74
2020/12/06 02:34:12;;;;;;;67.85;28.40;;;;;;;0.75;100.00;97225.78;5092646;28;20292;-74
2020/12/06 02:36:38;;;;;;;60.60;25.65;;;;;;;0.72;100.00;97223.59;5092528;28;20028;-75
2020/12/06 02:39:06;;;;;;;73.57;28.00;;;;;;;0.59;100.00;97218.63;5092647;28;20034;-74
2020/12/06 02:41:44;;;;;;;71.57;28.10;;;;;;;0.60;100.00;97195.19;5092382;28;20024;-74
2020/12/06 02:44:11;;;;;;;57.05;28.67;;;;;;;0.66;100.00;97192.31;5090705;28;20067;-75
2020/12/06 02:46:37;;;;;;;69.72;31.00;;;;;;;0.58;100.00;97192.75;5092425;28;20052;-75
2020/12/06 02:49:04;;;;;;;70.40;29.38;;;;;;;0.52;100.00;97207.22;5092204;28;20465;-75
2020/12/06 02:51:29;;;;;;;69.03;28.48;;;;;;;0.57;100.00;97193.81;5091952;28;20023;-75
2020/12/06 02:53:55;;;;;;;100.25;32.03;;;;;;;0.54;100.00;97183.56;5090832;28;20036;-75
2020/12/06 02:56:21;;;;;;;78.10;31.58;;;;;;;0.50;100.00;97169.78;5091686;28;20031;-74
2020/12/06 02:58:46;;;;;;;52.08;27.70;;;;;;;0.48;100.00;97181.88;5092029;28;20366;-74
2020/12/06 03:01:12;;;;;;;72.75;29.23;;;;;;;0.46;100.00;97173.25;5090611;28;20495;-74
2020/12/06 03:03:38;;;;;;;71.97;30.63;;;;;;;0.38;100.00;97152.16;5091750;28;20031;-75
2020/12/06 03:06:04;;;;;;;73.63;29.85;;;;;;;0.51;100.00;97165.22;5091731;28;20028;-75
2020/12/06 03:08:29;;;;;;;79.05;29.30;;;;;;;0.54;100.00;97148.59;5091935;28;20039;-74
2020/12/06 03:10:55;;;;;;;66.60;26.48;;;;;;;0.48;100.00;97154.97;5091936;28;20085;-74
2020/12/06 03:13:20;;;;;;;45.13;27.50;;;;;;;0.66;100.00;97165.41;5092017;28;20081;-75
2020/12/06 03:15:46;;;;;;;58.25;28.20;;;;;;;0.57;100.00;97158.03;5092119;28;20077;-75
2020/12/06 03:18:11;;;;;;;64.13;28.38;;;;;;;0.60;100.00;97152.97;5091531;28;20024;-74
2020/12/06 03:20:37;;;;;;;;;;;;;;;0.64;100.00;97158.66;5092742;28;20118;-75
2020/12/06 03:23:02;;;;;;;75.25;31.33;;;;;;;0.65;100.00;97163.78;5092709;28;19920;-75
2020/12/06 03:25:27;;;;;;;;;;;;;;;0.83;100.00;97162.63;5093472;28;20028;-74
2020/12/06 03:27:53;;;;;;;78.75;30.88;;;;;;;0.72;100.00;97163.59;5092767;28;19916;-75
2020/12/06 03:30:18;;;;;;;;;;;;;;;0.81;100.00;97167.47;5090660;28;20016;-75
2020/12/06 03:32:43;;;;;;;73.90;28.70;;;;;;;0.64;100.00;97140.63;5091747;28;20353;-74
2020/12/06 03:35:09;;;;;;;70.18;29.75;;;;;;;0.68;100.00;97149.03;5090215;28;20026;-76
2020/12/06 03:37:35;;;;;;;90.07;31.10;;;;;;;0.60;100.00;97123.38;5091729;28;20562;-75
2020/12/06 03:40:00;;;;;;;72.82;28.95;;;;;;;0.61;100.00;97134.94;5091723;28;20081;-75
2020/12/06 03:42:25;;;;;;;;;;;;;;;0.60;100.00;97139.50;5092071;28;20048;-75
2020/12/06 03:44:51;;;;;;;78.25;27.38;;;;;;;0.50;100.00;97124.06;5091501;28;20369;-74
2020/12/06 03:47:17;;;;;;;53.10;23.95;;;;;;;0.62;100.00;97140.09;5105832;28;20474;-75
2020/12/06 03:49:43;;;;;;;63.80;29.08;;;;;;;0.60;100.00;97144.88;5108102;28;20039;-74
2020/12/06 03:52:09;;;;;;;65.22;27.55;;;;;;;0.67;100.00;97128.56;5088947;28;20024;-74
2020/12/06 03:54:34;;;;;;;80.78;29.58;;;;;;;0.66;100.00;97118.88;5088971;28;20032;-74
2020/12/06 03:56:59;;;;;;;63.35;29.27;;;;;;;0.74;100.00;97124.63;5088680;28;20028;-75
2020/12/06 03:59:25;;;;;;;75.53;30.30;;;;;;;0.79;100.00;97113.06;5087457;28;20077;-75
2020/12/06 04:01:50;;;;;;;70.93;30.52;;;;;;;0.67;100.00;97102.47;5090744;28;20032;-75
2020/12/06 04:04:16;;;;;;;77.15;32.90;;;;;;;0.64;100.00;97102.97;5111525;28;20020;-75
2020/12/06 04:06:41;;;;;;;57.67;26.35;;;;;;;0.69;100.00;97108.41;5110978;28;20109;-75
2020/12/06 04:09:06;;;;;;;66.82;28.17;;;;;;;0.65;100.00;97115.38;5112683;28;20511;-75
2020/12/06 04:11:32;;;;;;;56.78;25.05;;;;;;;0.65;100.00;97107.31;5112926;28;20396;-75
2020/12/06 04:13:57;;;;;;;68.85;28.80;;;;;;;0.62;100.00;97105.13;5113229;28;20106;-75
2020/12/06 04:16:23;;;;;;;96.43;29.38;;;;;;;0.57;100.00;97099.66;5112735;28;20031;-76
2020/12/06 04:18:48;;;;;;;;;;;;;;;0.61;100.00;97102.66;5114014;28;20066;-75
2020/12/06 04:21:13;;;;;;;66.53;30.30;;;;;;;0.70;100.00;97101.97;5111504;28;20326;-75
2020/12/06 04:23:39;;;;;;;;;;;;;;;0.68;100.00;97104.09;5112543;28;20031;-75
2020/12/06 04:26:05;;;;;;;54.03;25.05;;;;;;;0.69;100.00;97099.53;5117662;28;19911;-75
2020/12/06 04:28:30;;;;;;;;;;;;;;;0.68;100.00;97098.72;5117872;28;20092;-76
2020/12/06 04:30:56;;;;;;;75.53;31.08;;;;;;;0.62;100.00;97091.66;5116345;28;20375;-74
2020/12/06 04:33:21;;;;;;;71.03;29.63;;;;;;;0.68;100.00;97097.91;5103878;27;20481;-76
2020/12/06 04:35:46;;;;;;;66.78;27.60;;;;;;;0.73;100.00;97096.06;5097340;28;20024;-76
2020/12/06 04:38:12;;;;;;;67.35;27.10;;;;;;;0.75;100.00;97118.16;5098664;28;20032;-77
2020/12/06 04:40:37;;;;;;;58.22;26.73;;;;;;;0.77;100.00;97102.56;5115937;28;20023;-78
2020/12/06 04:43:03;;;;;;;;;;;;;;;0.76;100.00;97087.50;5117016;28;20051;-77
2020/12/06 04:45:29;;;;;;;56.90;27.40;;;;;;;0.57;100.00;97082.72;5118593;28;19934;-80
2020/12/06 04:48:05;;;;;;;66.05;27.48;;;;;;;0.51;100.00;97084.53;5118174;28;20110;-76
2020/12/06 04:50:33;;;;;;;49.95;22.95;;;;;;;0.37;100.00;97096.78;5117549;28;20024;-75
2020/12/06 04:53:06;;;;;;;63.80;26.33;;;;;;;0.39;100.00;97105.38;5114788;28;20115;-76
2020/12/06 04:55:35;;;;;;;55.40;24.92;;;;;;;0.40;100.00;97097.09;5114542;28;20099;-76
2020/12/06 04:58:02;;;;;;;65.22;25.75;;;;;;;0.38;100.00;97093.81;5112516;28;20030;-75
2020/12/06 05:00:34;;;;;;;50.30;25.70;;;;;;;0.48;100.00;97103.88;5115470;28;20067;-75
2020/12/06 05:03:11;;;;;;;61.42;23.83;;;;;;;0.46;100.00;97106.81;5114914;28;20149;-75
2020/12/06 05:05:40;;;;;;;63.65;25.17;;;;;;;0.42;100.00;97102.19;5114440;28;20034;-74
2020/12/06 05:08:11;;;;;;;77.68;27.27;;;;;;;0.31;100.00;97092.41;5113183;28;20024;-75
2020/12/06 05:10:42;;;;;;;46.38;22.17;;;;;;;0.29;100.00;97089.13;5114431;28;20072;-76
2020/12/06 05:13:09;;;;;;;46.83;21.40;;;;;;;0.40;100.00;97085.50;5113125;28;20133;-76
2020/12/06 05:15:35;;;;;;;59.28;24.90;;;;;;;0.45;100.00;97067.53;5113316;28;20040;-75
2020/12/06 05:18:03;;;;;;;61.50;23.95;;;;;;;0.36;100.00;97079.00;5115070;28;20081;-75
2020/12/06 05:20:29;;;;;;;59.97;24.02;;;;;;;0.37;100.00;97086.00;5114743;28;20388;-74
2020/12/06 05:22:55;;;;;;;52.88;22.23;;;;;;;0.42;100.00;97081.50;5113692;28;20028;-76
2020/12/06 05:25:21;;;;;;;54.83;21.17;;;;;;;0.41;100.00;97084.41;5115282;28;20027;-75
2020/12/06 05:27:47;;;;;;;62.03;24.38;;;;;;;0.35;100.00;97077.38;5116130;28;20026;-75
2020/12/06 05:30:13;;;;;;;58.65;23.50;;;;;;;0.33;100.00;97060.69;5113164;28;20019;-75
2020/12/06 05:32:39;;;;;;;83.75;25.10;;;;;;;0.31;100.00;97082.47;5112557;28;20085;-74
2020/12/06 05:35:06;;;;;;;68.70;24.80;;;;;;;0.33;100.00;97076.81;5113765;28;20081;-76
2020/12/06 05:37:34;;;;;;;54.55;24.20;;;;;;;0.30;100.00;97074.63;5113588;28;20023;-76
2020/12/06 05:40:11;;;;;;;53.42;22.63;;;;;;;0.29;100.00;97056.88;5112442;28;20028;-73
2020/12/06 05:42:39;;;;;;;52.78;23.23;;;;;;;0.36;100.00;97057.47;5113557;28;20130;-75
2020/12/06 05:45:06;;;;;;;59.67;24.30;;;;;;;0.47;100.00;97070.00;5112227;28;20055;-75
2020/12/06 05:47:31;;;;;;;46.70;20.55;;;;;;;0.54;100.00;97070.59;5114367;28;20443;-74
2020/12/06 05:49:58;;;;;;;57.20;25.08;;;;;;;0.39;100.00;97051.59;5113673;28;20110;-74
2020/12/06 05:52:24;;;;;;;70.13;25.35;;;;;;;0.36;100.00;97057.47;5113665;28;20594;-75
2020/12/06 05:54:50;;;;;;;66.07;26.10;;;;;;;0.44;100.00;97054.34;5112446;28;20134;-75
2020/12/06 05:57:15;;;;;;;50.53;21.25;;;;;;;0.44;100.00;97033.63;5113564;28;20544;-75
2020/12/06 05:59:42;;;;;;;68.60;25.27;;;;;;;0.47;100.00;97048.47;5113698;28;20111;-76
2020/12/06 06:02:08;;;;;;;54.13;23.58;;;;;;;0.46;100.00;97036.09;5113739;28;20391;-76
2020/12/06 06:04:38;;;;;;;66.28;23.77;;;;;;;0.57;100.00;97026.22;5113969;28;20032;-76
2020/12/06 06:07:06;;;;;;;61.92;25.40;;;;;;;0.48;100.00;97015.13;5112964;28;20035;-76
2020/12/06 06:09:40;;;;;;;51.97;22.23;;;;;;;0.60;100.00;97020.31;5109043;28;20035;-75
2020/12/06 06:12:31;;;;;;;60.47;23.73;;;;;;;0.63;100.00;97025.22;5091961;28;20020;-77
2020/12/06 06:15:00;;;;;;;45.53;21.17;;;;;;;0.60;100.00;97023.00;5100020;28;20021;-75
2020/12/06 06:17:27;;;;;;;48.40;19.83;;;;;;;0.43;100.00;97020.44;5108946;28;20024;-76
2020/12/06 06:19:52;;;;;;;46.30;21.85;;;;;;;0.40;100.00;97026.34;5102963;28;20069;-75
2020/12/06 06:22:33;;;;;;;47.97;22.73;;;;;;;0.41;100.00;97011.81;5108001;28;20024;-75
2020/12/06 06:25:04;;;;;;;51.63;25.50;;;;;;;0.39;100.00;97003.19;5101392;28;20036;-77
2020/12/06 06:27:37;;;;;;;46.00;21.73;;;;;;;0.47;100.00;97003.53;5091562;28;20050;-74
2020/12/06 06:30:07;;;;;;;46.60;19.65;;;;;;;0.46;100.00;96983.09;5092277;28;20115;-74
2020/12/06 06:32:34;;;;;;;39.00;21.65;;;;;;;0.45;100.00;96980.66;5091055;28;20024;-75
2020/12/06 06:35:00;;;;;;;45.30;21.73;;;;;;;0.53;100.00;96983.69;5090918;28;20023;-75
2020/12/06 06:37:34;;;;;;;38.13;18.50;;;;;;;0.52;100.00;96987.47;5092655;28;20393;-75
2020/12/06 06:40:03;;;;;;;39.35;17.55;;;;;;;0.59;100.00;96981.88;5091462;28;20036;-74
2020/12/06 06:42:29;;;;;;;37.42;19.40;;;;;;;0.67;100.00;96984.09;5092696;28;20080;-74
2020/12/06 06:45:12;;;;;;;41.05;19.52;;;;;;;0.60;100.00;96977.28;5100589;28;20028;-75
2020/12/06 06:47:41;;;;;;;39.28;18.17;;;;;;;0.52;100.00;96965.13;5100464;28;20108;-75
2020/12/06 06:50:09;;;;;;;42.90;18.67;;;;;;;0.43;100.00;96961.28;5100614;28;20461;-75
2020/12/06 06:52:38;;;;;;;29.42;15.80;;;;;;;0.39;100.00;96949.41;5099172;28;20434;-76
2020/12/06 06:55:04;;;;;;;35.22;16.80;;;;;;;0.50;100.00;96951.91;5098895;28;20024;-74
2020/12/06 06:57:31;;;;;;;29.42;15.48;;;;;;;0.69;100.00;96948.88;5100654;28;20040;-75
2020/12/06 06:59:59;;;;;;;31.33;15.85;;;;;;;0.75;100.00;96948.63;5102055;28;20430;-75
2020/12/06 07:02:40;;;;;;;33.25;18.40;;;;;;;0.75;100.00;96963.97;5099885;28;20484;-74
2020/12/06 07:05:12;;;;;;;33.38;18.70;;;;;;;0.69;100.00;96952.34;5101248;28;20039;-75
2020/12/06 07:07:44;;;;;;;37.40;20.52;;;;;;;0.70;100.00;96950.47;5101579;28;20385;-73
2020/12/06 07:10:12;;;;;;;34.72;18.75;;;;;;;0.80;100.00;96940.59;5099177;28;20026;-74
2020/12/06 07:12:47;;;;;;;33.38;17.17;;;;;;;0.76;100.00;96922.53;5098439;28;20688;-76
2020/12/06 07:15:15;;;;;;;34.60;16.73;;;;;;;0.83;100.00;96923.13;5098766;28;20024;-75
2020/12/06 07:17:42;;;;;;;35.13;16.55;;;;;;;0.97;100.00;96927.00;5098923;28;20059;-76
2020/12/06 07:20:12;;;;;;;34.22;15.35;;;;;;;0.94;100.00;96947.16;5101319;28;20039;-75
2020/12/06 07:22:38;;;;;;;33.35;17.50;;;;;;;1.02;100.00;96930.53;5100244;28;20036;-76
2020/12/06 07:25:07;;;;;;;33.13;17.58;;;;;;;0.96;100.00;96923.50;5100683;28;20061;-74
2020/12/06 07:27:33;;;;;;;29.70;15.50;;;;;;;1.09;100.00;96927.63;5105495;28;20039;-76
2020/12/06 07:29:59;;;;;;;32.22;17.23;;;;;;;1.20;100.00;96925.75;5100977;28;20024;-73
2020/12/06 07:32:25;;;;;;;32.47;16.98;;;;;;;1.31;100.00;96928.28;5102262;28;20348;-75
2020/12/06 07:34:50;;;;;;;33.35;17.63;;;;;;;1.38;100.00;96928.81;5100115;28;20032;-75
2020/12/06 07:37:16;;;;;;;;;;;;;;;1.56;100.00;96928.38;5102220;28;20008;-76
2020/12/06 07:39:43;;;;;;;32.60;16.13;;;;;;;1.63;99.83;96926.25;5103585;28;19923;-76
2020/12/06 07:42:08;;;;;;;28.50;15.90;;;;;;;1.61;99.87;96924.88;5098217;28;20859;-76
2020/12/06 07:44:43;;;;;;;34.92;18.08;;;;;;;1.56;100.00;96955.34;5097832;28;20043;-76
2020/12/06 07:47:09;;;;;;;26.40;12.37;;;;;;;1.49;100.00;96952.06;5099791;28;20168;-76
2020/12/06 07:49:48;;;;;;;27.77;16.13;;;;;;;1.69;100.00;96932.47;5099710;28;20804;-76
2020/12/06 07:52:19;;;;;;;30.92;18.00;;;;;;;1.87;100.00;96950.88;5099100;28;20016;-75
2020/12/06 07:54:58;;;;;;;35.03;19.40;;;;;;;1.82;100.00;96950.00;5100612;28;20055;-75
2020/12/06 07:57:28;;;;;;;39.78;20.38;;;;;;;1.74;100.00;96942.44;5098462;28;20028;-75
2020/12/06 07:59:55;;;;;;;35.88;20.20;;;;;;;1.72;100.00;96940.03;5098559;28;20022;-74
2020/12/06 08:02:23;;;;;;;51.83;23.52;;;;;;;1.89;100.00;96940.63;5099309;28;20392;-75
2020/12/06 08:04:51;;;;;;;37.33;20.50;;;;;;;1.74;100.00;96927.09;5098142;28;20575;-75
2020/12/06 08:07:21;;;;;;;36.40;19.38;;;;;;;1.82;100.00;96942.75;5095198;28;20035;-76
2020/12/06 08:09:48;;;;;;;40.20;21.60;;;;;;;1.77;100.00;96928.44;5102622;28;20477;-75
2020/12/06 08:12:16;;;;;;;35.35;22.65;;;;;;;1.92;100.00;96947.34;5100256;28;20012;-75
2020/12/06 08:14:42;;;;;;;40.55;22.35;;;;;;;2.14;100.00;96956.06;5089313;28;20504;-75
2020/12/06 08:17:07;;;;;;;41.35;21.10;;;;;;;2.05;99.80;96942.28;5089306;28;20077;-75
2020/12/06 08:19:33;;;;;;;41.25;21.25;;;;;;;2.03;100.00;96955.25;5089060;28;20036;-75
2020/12/06 08:21:59;;;;;;;;;;;;;;;1.99;100.00;96969.50;5101893;28;20384;-75
2020/12/06 08:24:26;;;;;;;31.10;19.45;;;;;;;2.04;99.99;96967.63;5109390;28;19950;-75
2020/12/06 08:26:52;;;;;;;44.33;21.33;;;;;;;2.09;100.00;96972.22;5094183;28;20024;-77
2020/12/06 08:29:18;;;;;;;42.03;22.10;;;;;;;2.02;100.00;96971.66;5090433;28;20116;-75
2020/12/06 08:31:48;;;;;;;35.83;19.42;;;;;;;2.09;100.00;96964.16;5089218;28;20020;-74
2020/12/06 08:34:15;;;;;;;33.53;19.70;;;;;;;2.14;100.00;96970.34;5103084;28;20023;-74
2020/12/06 08:36:41;;;;;;;39.13;21.50;;;;;;;2.04;100.00;96973.00;5111063;28;20024;-76
2020/12/06 08:39:17;;;;;;;38.60;20.63;;;;;;;2.03;100.00;96967.91;5110619;28;20064;-76
2020/12/06 08:41:43;;;;;;;35.75;22.70;;;;;;;2.11;100.00;96968.19;5106304;28;20061;-78
2020/12/06 08:44:08;;;;;;;37.83;20.20;;;;;;;2.17;100.00;96977.91;5102908;28;20036;-86
2020/12/06 08:46:34;;;;;;;39.72;21.60;;;;;;;2.20;100.00;96956.88;5103430;28;20020;-83
2020/12/06 08:49:02;;;;;;;41.67;22.20;;;;;;;2.23;100.00;96965.25;5103541;28;20027;-92
2020/12/06 08:51:37;;;;;;;33.60;20.27;;;;;;;2.33;100.00;96983.34;5102123;28;20009;-89
2020/12/06 08:54:04;;;;;;;38.78;22.10;;;;;;;2.35;100.00;96983.91;5107830;28;20020;-85
2020/12/06 08:56:37;;;;;;;43.95;25.20;;;;;;;2.30;100.00;96981.16;5103764;28;20027;-84
2020/12/06 08:59:02;;;;;;;39.08;24.52;;;;;;;2.30;100.00;96986.56;5102383;28;20020;-85
2020/12/06 09:01:28;;;;;;;38.45;20.42;;;;;;;2.32;100.00;96995.22;5103444;28;20043;-87
2020/12/06 09:03:54;;;;;;;31.42;18.80;;;;;;;2.23;100.00;96969.81;5108297;28;20020;-91
2020/12/06 09:06:19;;;;;;;31.30;18.80;;;;;;;2.51;100.00;97002.53;5097973;28;20035;-75
2020/12/06 09:08:45;;;;;;;;;;;;;;;2.39;100.00;97011.94;5096113;28;20015;-74
2020/12/06 09:11:18;;;;;;;34.97;17.35;;;;;;;2.31;100.00;97017.88;5098548;28;19920;-74
2020/12/06 09:13:44;;;;;;;32.42;19.23;;;;;;;2.26;100.00;97024.06;5098699;28;20015;-75
2020/12/06 09:16:09;;;;;;;32.10;19.58;;;;;;;2.24;100.00;97036.19;5100148;28;20489;-75
2020/12/06 09:18:35;;;;;;;31.40;21.25;;;;;;;2.21;100.00;97024.03;5099040;28;20024;-74
2020/12/06 09:21:01;;;;;;;37.50;20.40;;;;;;;2.38;100.00;97037.31;5096699;28;20012;-73
2020/12/06 09:23:26;;;;;;;38.72;22.00;;;;;;;2.43;100.00;97040.03;5102440;28;20035;-74
2020/12/06 09:25:51;;;;;;;;;;;;;;;2.51;100.00;97053.81;5101560;28;20476;-73
2020/12/06 09:28:17;;;;;;;28.90;17.27;;;;;;;2.62;100.00;97038.44;5101559;28;19911;-74
2020/12/06 09:30:43;;;;;;;35.60;17.83;;;;;;;2.79;100.00;97032.81;5103061;28;20047;-77
2020/12/06 09:33:09;;;;;;;27.77;17.27;;;;;;;2.80;100.00;97013.63;5107476;28;20777;-74
2020/12/06 09:35:34;;;;;;;30.67;18.65;;;;;;;2.84;100.00;96998.53;5107138;28;20028;-75
2020/12/06 09:38:00;;;;;;;;;;;;;;;2.85;100.00;96983.91;5095809;28;20024;-76
2020/12/06 09:40:25;;;;;;;37.70;19.58;;;;;;;2.77;100.00;96949.38;5100686;28;19923;-75
2020/12/06 09:42:51;;;;;;;34.38;20.08;;;;;;;2.86;100.00;96969.34;5108479;28;20901;-76
2020/12/06 09:45:16;;;;;;;31.55;18.42;;;;;;;3.10;100.00;96970.41;5107374;28;20027;-75
2020/12/06 09:47:41;;;;;;;29.88;19.48;;;;;;;3.04;100.00;96922.06;5106804;28;20046;-75
2020/12/06 09:50:08;;;;;;;40.85;20.50;;;;;;;3.29;100.00;96951.72;5095473;28;20034;-75
2020/12/06 09:52:33;;;;;;;33.72;17.17;;;;;;;3.37;100.00;96958.50;5097035;28;20028;-75
2020/12/06 09:54:59;;;;;;;34.00;19.27;;;;;;;3.41;100.00;96943.34;5091139;28;20050;-75
2020/12/06 09:57:25;;;;;;;33.28;18.92;;;;;;;3.51;100.00;96943.31;5094766;28;20671;-75
2020/12/06 09:59:51;;;;;;;;;;;;;;;3.65;100.00;96950.56;5107412;28;20024;-75
2020/12/06 10:02:16;;;;;;;27.35;17.50;;;;;;;3.51;100.00;96937.94;5100811;28;19916;-75
2020/12/06 10:04:41;;;;;;;23.90;17.80;;;;;;;3.46;100.00;96938.72;5091903;28;20040;-74
2020/12/06 10:07:07;;;;;;;29.30;17.85;;;;;;;3.39;100.00;96935.50;5092391;28;20077;-75
2020/12/06 10:09:32;;;;;;;30.40;17.48;;;;;;;3.26;100.00;96929.88;5098125;28;20028;-76
2020/12/06 10:11:58;;;;;;;35.58;20.52;;;;;;;3.12;100.00;96898.03;5099305;28;20024;-74
2020/12/06 10:14:23;;;;;;;33.35;20.23;;;;;;;3.19;100.00;96906.66;5102290;28;20023;-75
2020/12/06 10:16:51;;;;;;;;;;;;;;;3.10;100.00;96912.91;5104635;28;20020;-75
2020/12/06 10:19:17;;;;;;;31.17;17.33;;;;;;;2.99;100.00;96909.41;5096774;28;19916;-75
2020/12/06 10:21:43;;;;;;;33.05;20.67;;;;;;;2.88;100.00;96902.38;5097481;28;20088;-75
2020/12/06 10:24:08;;;;;;;30.27;18.33;;;;;;;2.76;100.00;96890.28;5101631;28;20480;-75
2020/12/06 10:26:33;;;;;;;;;;;;;;;2.69;100.00;96893.25;5100736;28;20035;-74
2020/12/06 10:28:59;;;;;;;26.67;17.00;;;;;;;2.49;100.00;96879.75;5101414;28;19923;-74
2020/12/06 10:31:25;;;;;;;31.90;19.00;;;;;;;2.40;100.00;96882.19;5098341;28;20024;-74
2020/12/06 10:33:51;;;;;;;39.47;23.98;;;;;;;2.24;100.00;96880.56;5099609;28;20421;-75
2020/12/06 10:36:19;;;;;;;51.40;30.10;;;;;;;2.21;100.00;96883.78;5098816;28;20493;-75
2020/12/06 10:38:44;;;;;;;47.03;27.52;;;;;;;2.29;100.00;96893.25;5101697;28;20032;-75
2020/12/06 10:41:10;;;;;;;39.00;23.20;;;;;;;2.26;100.00;96891.06;5096398;28;20078;-77
2020/12/06 10:43:36;;;;;;;38.47;22.48;;;;;;;2.16;100.00;96883.78;5101713;28;20048;-75
2020/12/06 10:46:01;;;;;;;;;;;;;;;2.17;100.00;96872.72;5101127;28;20420;-75
2020/12/06 10:48:26;;;;;;;32.90;22.27;;;;;;;2.14;100.00;96864.34;5102968;27;19960;-75
2020/12/06 10:50:53;;;;;;;46.17;26.60;;;;;;;2.30;100.00;96866.00;5104919;28;20024;-76
2020/12/06 10:53:18;;;;;;;36.72;23.20;;;;;;;2.13;100.00;96847.38;5104122;28;20035;-76
2020/12/06 10:55:44;;;;;;;42.50;25.05;;;;;;;2.16;100.00;96846.03;5103524;28;20020;-76
2020/12/06 10:58:09;;;;;;;;;;;;;;;2.17;100.00;96837.66;5107674;28;20016;-74
2020/12/06 11:00:34;;;;;;;45.85;26.98;;;;;;;2.22;100.00;96828.78;5103603;28;20288;-74
2020/12/06 11:03:00;;;;;;;;;;;;;;;2.22;100.00;96822.56;5100131;28;20061;-74
2020/12/06 11:05:25;;;;;;;46.55;24.60;;;;;;;2.10;100.00;96812.84;5101938;28;19922;-74
2020/12/06 11:07:51;;;;;;;56.80;32.70;;;;;;;1.95;100.00;96830.91;5090654;28;20109;-74
2020/12/06 11:10:16;;;;;;;;;;;;;;;1.99;100.00;96813.94;5091310;28;20069;-74
2020/12/06 11:12:41;;;;;;;67.90;33.75;;;;;;;1.97;100.00;96802.59;5090369;28;20101;-74
2020/12/06 11:15:07;;;;;;;53.15;26.42;;;;;;;2.00;100.00;96804.78;5090551;28;20024;-74
2020/12/06 11:17:34;;;;;;;63.85;29.73;;;;;;;2.24;100.00;96794.25;5090487;28;20488;-72
2020/12/06 11:19:59;;;;;;;57.20;38.08;;;;;;;2.15;100.00;96807.47;5097992;28;20028;-74
2020/12/06 11:22:25;;;;;;;75.88;49.20;;;;;;;2.12;100.00;96788.31;5090235;28;20077;-74
2020/12/06 11:24:51;;;;;;;75.82;49.45;;;;;;;2.18;100.00;96779.16;5090235;28;20078;-74